sensor_id;sensor_type;location;lat;lon;timestamp;pressure;altitude;pressure_sealevel;temperature;humidity
72409;BME280;60402;48.082;11.628;2023-08-24T00:00:21;95612.41;;;23.62;85.64
72409;BME280;60402;48.082;11.628;2023-08-24T00:03:07;95611.09;;;23.58;87.02
72409;BME280;60402;48.082;11.628;2023-08-24T00:05:54;95616.06;;;23.52;88.52
72409;BME280;60402;48.082;11.628;2023-08-24T00:08:39;95610.38;;;23.29;92.48
72409;BME280;60402;48.082;11.628;2023-08-24T00:11:25;95612.97;;;23.27;92.64
72409;BME280;60402;48.082;11.628;2023-08-24T00:14:11;95618.50;;;23.31;93.54
72409;BME280;60402;48.082;11.628;2023-08-24T00:16:56;95608.31;;;23.02;96.92
72409;BME280;60402;48.082;11.628;2023-08-24T00:19:42;95609.03;;;22.85;98.80
72409;BME280;60402;48.082;11.628;2023-08-24T00:22:28;95612.75;;;22.91;98.32
72409;BME280;60402;48.082;11.628;2023-08-24T00:25:13;95607.25;;;23.10;96.90
72409;BME280;60402;48.082;11.628;2023-08-24T00:27:59;95606.72;;;23.12;96.37
72409;BME280;60402;48.082;11.628;2023-08-24T00:30:45;95609.06;;;23.13;96.41
72409;BME280;60402;48.082;11.628;2023-08-24T00:33:30;95607.25;;;23.10;96.90
72409;BME280;60402;48.082;11.628;2023-08-24T00:36:16;95608.31;;;23.02;98.58
72409;BME280;60402;48.082;11.628;2023-08-24T00:39:03;95590.44;;;22.81;99.27
72409;BME280;60402;48.082;11.628;2023-08-24T00:41:49;95604.31;;;22.77;99.98
72409;BME280;60402;48.082;11.628;2023-08-24T00:44:34;95599.59;;;22.62;100.00
72409;BME280;60402;48.082;11.628;2023-08-24T00:47:21;95599.34;;;22.49;100.00
72409;BME280;60402;48.082;11.628;2023-08-24T00:50:08;95597.50;;;22.52;100.00
72409;BME280;60402;48.082;11.628;2023-08-24T00:52:54;95599.63;;;22.68;100.00
72409;BME280;60402;48.082;11.628;2023-08-24T00:55:40;95593.59;;;22.55;100.00
72409;BME280;60402;48.082;11.628;2023-08-24T00:58:26;95595.44;;;22.69;99.79
72409;BME280;60402;48.082;11.628;2023-08-24T01:01:13;95599.88;;;22.70;100.00
72409;BME280;60402;48.082;11.628;2023-08-24T01:03:58;95595.69;;;22.65;100.00
72409;BME280;60402;48.082;11.628;2023-08-24T01:06:44;95599.88;;;22.70;100.00
72409;BME280;60402;48.082;11.628;2023-08-24T01:09:30;95591.50;;;22.55;100.00
72409;BME280;60402;48.082;11.628;2023-08-24T01:12:38;95593.84;;;22.57;100.00
72409;BME280;60402;48.082;11.628;2023-08-24T01:18:35;95590.72;;;22.55;100.00
72409;BME280;60402;48.082;11.628;2023-08-24T01:21:21;95595.69;;;22.54;100.00
72409;BME280;60402;48.082;11.628;2023-08-24T01:24:14;95588.38;;;22.59;100.00
72409;BME280;60402;48.082;11.628;2023-08-24T01:27:03;95575.50;;;22.49;100.00
72409;BME280;60402;48.082;11.628;2023-08-24T01:29:50;95593.31;;;22.53;100.00
72409;BME280;60402;48.082;11.628;2023-08-24T01:32:38;95588.09;;;22.51;100.00
72409;BME280;60402;48.082;11.628;2023-08-24T01:35:24;95577.88;;;22.50;100.00
72409;BME280;60402;48.082;11.628;2023-08-24T01:38:09;95585.44;;;22.42;100.00
72409;BME280;60402;48.082;11.628;2023-08-24T01:41:19;95599.06;;;22.41;100.00
72409;BME280;60402;48.082;11.628;2023-08-24T01:44:08;95602.19;;;22.32;100.00
72409;BME280;60402;48.082;11.628;2023-08-24T01:46:56;95598.47;;;22.20;100.00
72409;BME280;60402;48.082;11.628;2023-08-24T01:49:43;95597.44;;;22.24;100.00
72409;BME280;60402;48.082;11.628;2023-08-24T01:52:29;95594.56;;;22.18;100.00
72409;BME280;60402;48.082;11.628;2023-08-24T01:55:20;95592.22;;;22.22;100.00
72409;BME280;60402;48.082;11.628;2023-08-24T01:58:05;95578.34;;;22.20;100.00
72409;BME280;60402;48.082;11.628;2023-08-24T02:00:51;95583.84;;;22.24;100.00
72409;BME280;60402;48.082;11.628;2023-08-24T02:03:37;95569.97;;;22.17;100.00
72409;BME280;60402;48.082;11.628;2023-08-24T02:06:24;95562.91;;;22.12;100.00
72409;BME280;60402;48.082;11.628;2023-08-24T02:09:10;95562.38;;;22.14;100.00
72409;BME280;60402;48.082;11.628;2023-08-24T02:11:55;95558.91;;;22.04;100.00
72409;BME280;60402;48.082;11.628;2023-08-24T02:14:41;95562.81;;;22.01;100.00
72409;BME280;60402;48.082;11.628;2023-08-24T02:17:27;95553.13;;;21.93;100.00
72409;BME280;60402;48.082;11.628;2023-08-24T02:20:12;95563.88;;;22.04;100.00
72409;BME280;60402;48.082;11.628;2023-08-24T02:22:58;95573.63;;;22.17;100.00
72409;BME280;60402;48.082;11.628;2023-08-24T02:25:44;95568.91;;;22.14;100.00
72409;BME280;60402;48.082;11.628;2023-08-24T02:28:30;95558.13;;;21.92;100.00
72409;BME280;60402;48.082;11.628;2023-08-24T02:31:15;95560.72;;;21.90;100.00
72409;BME280;60402;48.082;11.628;2023-08-24T02:34:01;95553.88;;;21.82;100.00
72409;BME280;60402;48.082;11.628;2023-08-24T02:36:47;95544.44;;;21.76;100.00
72409;BME280;60402;48.082;11.628;2023-08-24T02:39:33;95544.44;;;21.71;100.00
72409;BME280;60402;48.082;11.628;2023-08-24T02:42:19;95547.00;;;21.63;100.00
72409;BME280;60402;48.082;11.628;2023-08-24T02:45:05;95546.22;;;21.62;100.00
72409;BME280;60402;48.082;11.628;2023-08-24T02:47:50;95561.94;;;21.73;100.00
72409;BME280;60402;48.082;11.628;2023-08-24T02:50:36;95548.84;;;21.60;100.00
72409;BME280;60402;48.082;11.628;2023-08-24T02:53:22;95547.75;;;21.52;100.00
72409;BME280;60402;48.082;11.628;2023-08-24T02:56:08;95550.31;;;21.39;100.00
72409;BME280;60402;48.082;11.628;2023-08-24T02:58:53;95551.88;;;21.40;100.00
72409;BME280;60402;48.082;11.628;2023-08-24T03:01:39;95542.09;;;21.26;100.00
72409;BME280;60402;48.082;11.628;2023-08-24T03:04:26;95545.53;;;21.30;100.00
72409;BME280;60402;48.082;11.628;2023-08-24T03:07:12;95545.78;;;21.27;100.00
72409;BME280;60402;48.082;11.628;2023-08-24T03:09:58;95544.88;;;21.04;100.00
72409;BME280;60402;48.082;11.628;2023-08-24T03:12:43;95535.38;;;20.92;100.00
72409;BME280;60402;48.082;11.628;2023-08-24T03:15:29;95534.84;;;20.93;100.00
72409;BME280;60402;48.082;11.628;2023-08-24T03:18:16;95535.38;;;20.92;100.00
72409;BME280;60402;48.082;11.628;2023-08-24T03:21:02;95512.03;;;20.79;100.00
72409;BME280;60402;48.082;11.628;2023-08-24T03:23:48;95530.06;;;20.79;100.00
72409;BME280;60402;48.082;11.628;2023-08-24T03:26:33;95526.88;;;20.72;100.00
72409;BME280;60402;48.082;11.628;2023-08-24T03:29:19;95523.44;;;20.62;100.00
72409;BME280;60402;48.082;11.628;2023-08-24T03:32:05;95518.13;;;20.55;100.00
72409;BME280;60402;48.082;11.628;2023-08-24T03:34:50;95527.50;;;20.50;100.00
72409;BME280;60402;48.082;11.628;2023-08-24T03:37:36;95519.97;;;20.52;100.00
72409;BME280;60402;48.082;11.628;2023-08-24T03:40:22;95532.03;;;20.62;100.00
72409;BME280;60402;48.082;11.628;2023-08-24T03:43:07;95523.50;;;20.73;100.00
72409;BME280;60402;48.082;11.628;2023-08-24T03:45:53;95526.09;;;20.71;100.00
72409;BME280;60402;48.082;11.628;2023-08-24T03:48:39;95519.28;;;20.68;100.00
72409;BME280;60402;48.082;11.628;2023-08-24T03:51:24;95512.44;;;20.60;100.00
72409;BME280;60402;48.082;11.628;2023-08-24T03:54:10;95518.88;;;20.87;100.00
72409;BME280;60402;48.082;11.628;2023-08-24T03:56:56;95506.59;;;20.81;100.00
72409;BME280;60402;48.082;11.628;2023-08-24T03:59:41;95521.03;;;20.98;100.00
72409;BME280;60402;48.082;11.628;2023-08-24T04:02:27;95514.66;;;20.77;100.00
72409;BME280;60402;48.082;11.628;2023-08-24T04:05:13;95513.47;;;20.57;100.00
72409;BME280;60402;48.082;11.628;2023-08-24T04:07:59;95528.41;;;20.67;100.00
72409;BME280;60402;48.082;11.628;2023-08-24T04:10:46;95523.72;;;20.70;100.00
72409;BME280;60402;48.082;11.628;2023-08-24T04:13:31;95531.59;;;20.75;100.00
72409;BME280;60402;48.082;11.628;2023-08-24T04:16:17;95535.06;;;20.84;100.00
72409;BME280;60402;48.082;11.628;2023-08-24T04:19:03;95527.16;;;20.74;100.00
72409;BME280;60402;48.082;11.628;2023-08-24T04:21:49;95539.28;;;20.89;100.00
72409;BME280;60402;48.082;11.628;2023-08-24T04:24:34;95538.22;;;20.86;100.00
72409;BME280;60402;48.082;11.628;2023-08-24T04:27:20;95531.13;;;20.82;100.00
72409;BME280;60402;48.082;11.628;2023-08-24T04:30:07;95529.78;;;20.77;100.00
72409;BME280;60402;48.082;11.628;2023-08-24T04:32:57;95522.44;;;20.71;100.00
72409;BME280;60402;48.082;11.628;2023-08-24T04:35:42;95535.00;;;20.79;100.00
72409;BME280;60402;48.082;11.628;2023-08-24T04:38:28;95531.91;;;20.82;100.00
72409;BME280;60402;48.082;11.628;2023-08-24T04:41:14;95534.56;;;20.86;100.00
72409;BME280;60402;48.082;11.628;2023-08-24T04:44:00;95543.13;;;20.80;100.00
72409;BME280;60402;48.082;11.628;2023-08-24T04:46:46;95548.09;;;20.80;100.00
72409;BME280;60402;48.082;11.628;2023-08-24T04:49:32;95538.56;;;21.00;100.00
72409;BME280;60402;48.082;11.628;2023-08-24T04:52:17;95551.09;;;21.02;100.00
72409;BME280;60402;48.082;11.628;2023-08-24T04:55:03;95540.00;;;20.84;100.00
72409;BME280;60402;48.082;11.628;2023-08-24T04:57:49;95544.41;;;20.79;100.00
72409;BME280;60402;48.082;11.628;2023-08-24T05:00:35;95542.84;;;20.78;100.00
72409;BME280;60402;48.082;11.628;2023-08-24T05:03:21;95530.56;;;20.78;100.00
72409;BME280;60402;48.082;11.628;2023-08-24T05:06:07;95537.84;;;20.73;100.00
72409;BME280;60402;48.082;11.628;2023-08-24T05:08:52;95535.88;;;20.85;100.00
72409;BME280;60402;48.082;11.628;2023-08-24T05:11:38;95523.97;;;20.66;100.00
72409;BME280;60402;48.082;11.628;2023-08-24T05:14:24;95543.19;;;20.91;100.00
72409;BME280;60402;48.082;11.628;2023-08-24T05:17:09;95523.91;;;20.98;100.00
72409;BME280;60402;48.082;11.628;2023-08-24T05:19:55;95538.66;;;21.16;100.00
72409;BME280;60402;48.082;11.628;2023-08-24T05:22:41;95542.09;;;21.26;100.00
72409;BME280;60402;48.082;11.628;2023-08-24T05:25:26;95551.88;;;21.40;100.00
72409;BME280;60402;48.082;11.628;2023-08-24T05:28:12;95546.56;;;21.27;100.00
72409;BME280;60402;48.082;11.628;2023-08-24T05:30:58;95539.97;;;21.21;100.00
72409;BME280;60402;48.082;11.628;2023-08-24T05:33:44;95544.97;;;21.26;100.00
72409;BME280;60402;48.082;11.628;2023-08-24T05:36:30;95549.75;;;21.35;100.00
72409;BME280;60402;48.082;11.628;2023-08-24T05:39:16;95548.44;;;21.36;100.00
72409;BME280;60402;48.082;11.628;2023-08-24T05:42:02;95543.56;;;21.53;100.00
72409;BME280;60402;48.082;11.628;2023-08-24T05:44:47;95546.38;;;21.36;100.00
72409;BME280;60402;48.082;11.628;2023-08-24T05:47:33;95534.06;;;21.36;100.00
72409;BME280;60402;48.082;11.628;2023-08-24T05:50:18;95527.72;;;21.26;100.00
72409;BME280;60402;48.082;11.628;2023-08-24T05:53:04;95533.06;;;21.39;100.00
72409;BME280;60402;48.082;11.628;2023-08-24T05:55:50;95529.41;;;21.44;100.00
72409;BME280;60402;48.082;11.628;2023-08-24T05:58:35;95529.72;;;21.52;100.00
72409;BME280;60402;48.082;11.628;2023-08-24T06:01:21;95535.81;;;21.71;100.00
72409;BME280;60402;48.082;11.628;2023-08-24T06:04:10;95539.00;;;21.95;100.00
72409;BME280;60402;48.082;11.628;2023-08-24T06:06:56;95536.91;;;21.90;100.00
72409;BME280;60402;48.082;11.628;2023-08-24T06:09:42;95524.97;;;22.14;100.00
72409;BME280;60402;48.082;11.628;2023-08-24T06:12:28;95527.06;;;22.25;100.00
72409;BME280;60402;48.082;11.628;2023-08-24T06:15:13;95521.59;;;22.27;100.00
72409;BME280;60402;48.082;11.628;2023-08-24T06:17:59;95531.78;;;22.39;100.00
72409;BME280;60402;48.082;11.628;2023-08-24T06:20:46;95527.09;;;22.64;100.00
72409;BME280;60402;48.082;11.628;2023-08-24T06:23:34;95519.75;;;22.80;100.00
72409;BME280;60402;48.082;11.628;2023-08-24T06:26:20;95529.13;;;23.25;100.00
72409;BME280;60402;48.082;11.628;2023-08-24T06:29:05;95526.16;;;23.53;99.43
72409;BME280;60402;48.082;11.628;2023-08-24T06:31:51;95522.06;;;23.95;95.78
72409;BME280;60402;48.082;11.628;2023-08-24T06:34:37;95523.91;;;24.34;92.38
72409;BME280;60402;48.082;11.628;2023-08-24T06:37:22;95522.00;;;24.48;91.41
72409;BME280;60402;48.082;11.628;2023-08-24T06:40:08;95520.59;;;24.19;92.64
72409;BME280;60402;48.082;11.628;2023-08-24T06:42:54;95528.34;;;24.00;93.93
72409;BME280;60402;48.082;11.628;2023-08-24T06:45:40;95520.88;;;24.15;93.68
72409;BME280;60402;48.082;11.628;2023-08-24T06:48:26;95525.38;;;23.53;95.80
72409;BME280;60402;48.082;11.628;2023-08-24T06:51:12;95512.16;;;23.80;95.41
72409;BME280;60402;48.082;11.628;2023-08-24T06:53:57;95507.44;;;23.82;93.57
72409;BME280;60402;48.082;11.628;2023-08-24T06:56:43;95515.47;;;24.01;94.59
72409;BME280;60402;48.082;11.628;2023-08-24T06:59:29;95515.84;;;24.21;93.38
72409;BME280;60402;48.082;11.628;2023-08-24T07:02:14;95503.88;;;24.78;89.80
72409;BME280;60402;48.082;11.628;2023-08-24T07:05:00;95512.50;;;25.38;87.21
72409;BME280;60402;48.082;11.628;2023-08-24T07:07:47;95512.06;;;25.53;85.13
72409;BME280;60402;48.082;11.628;2023-08-24T07:10:32;95502.47;;;25.88;84.00
72409;BME280;60402;48.082;11.628;2023-08-24T07:13:21;95496.53;;;26.69;79.70
72409;BME280;60402;48.082;11.628;2023-08-24T07:16:07;95500.72;;;25.55;82.09
72409;BME280;60402;48.082;11.628;2023-08-24T07:18:53;95487.88;;;25.74;82.91
72409;BME280;60402;48.082;11.628;2023-08-24T07:21:39;95475.94;;;25.84;82.03
72409;BME280;60402;48.082;11.628;2023-08-24T07:24:24;95487.81;;;26.18;79.66
72409;BME280;60402;48.082;11.628;2023-08-24T07:27:11;95472.63;;;26.49;78.16
72409;BME280;60402;48.082;11.628;2023-08-24T07:29:57;95480.63;;;28.35;70.82
72409;BME280;60402;48.082;11.628;2023-08-24T07:32:43;95472.72;;;28.77;68.98
72409;BME280;60402;48.082;11.628;2023-08-24T07:35:28;95481.38;;;30.33;62.14
72409;BME280;60402;48.082;11.628;2023-08-24T07:38:14;95472.38;;;31.51;57.69
72409;BME280;60402;48.082;11.628;2023-08-24T07:41:00;95484.06;;;32.30;55.77
72409;BME280;60402;48.082;11.628;2023-08-24T07:43:45;95473.34;;;32.33;54.62
72409;BME280;60402;48.082;11.628;2023-08-24T07:46:31;95466.06;;;31.93;55.35
72409;BME280;60402;48.082;11.628;2023-08-24T07:49:17;95467.47;;;33.73;50.54
72409;BME280;60402;48.082;11.628;2023-08-24T07:52:02;95468.63;;;32.77;52.69
72409;BME280;60402;48.082;11.628;2023-08-24T07:54:48;95459.28;;;33.04;52.17
72409;BME280;60402;48.082;11.628;2023-08-24T07:57:35;95466.16;;;32.66;52.26
72409;BME280;60402;48.082;11.628;2023-08-24T08:00:21;95466.56;;;32.63;53.13
72409;BME280;60402;48.082;11.628;2023-08-24T08:03:06;95470.72;;;33.17;51.27
72409;BME280;60402;48.082;11.628;2023-08-24T08:05:52;95465.88;;;33.54;51.10
72409;BME280;60402;48.082;11.628;2023-08-24T08:08:38;95472.69;;;35.05;46.17
72409;BME280;60402;48.082;11.628;2023-08-24T08:11:23;95463.00;;;33.89;49.28
72409;BME280;60402;48.082;11.628;2023-08-24T08:14:09;95469.06;;;37.47;41.46
72409;BME280;60402;48.082;11.628;2023-08-24T08:16:56;95469.88;;;35.91;41.45
72409;BME280;60402;48.082;11.628;2023-08-24T08:19:42;95472.38;;;34.57;45.43
72409;BME280;60402;48.082;11.628;2023-08-24T08:22:27;95474.28;;;34.89;44.22
72409;BME280;60402;48.082;11.628;2023-08-24T08:25:13;95460.56;;;35.28;43.46
72409;BME280;60402;48.082;11.628;2023-08-24T08:27:58;95465.31;;;35.51;42.68
72409;BME280;60402;48.082;11.628;2023-08-24T08:30:45;95453.91;;;35.28;42.23
72409;BME280;60402;48.082;11.628;2023-08-24T08:33:30;95444.94;;;35.72;42.18
72409;BME280;60402;48.082;11.628;2023-08-24T08:36:16;95455.19;;;36.39;39.85
72409;BME280;60402;48.082;11.628;2023-08-24T08:39:02;95459.00;;;38.15;37.54
72409;BME280;60402;48.082;11.628;2023-08-24T08:41:49;95450.53;;;38.97;35.77
72409;BME280;60402;48.082;11.628;2023-08-24T08:44:37;95461.81;;;36.69;39.80
72409;BME280;60402;48.082;11.628;2023-08-24T08:47:23;95462.41;;;39.91;34.55
72409;BME280;60402;48.082;11.628;2023-08-24T08:50:10;95458.25;;;38.35;36.33
72409;BME280;60402;48.082;11.628;2023-08-24T08:52:55;95460.72;;;38.18;36.98
72409;BME280;60402;48.082;11.628;2023-08-24T08:55:41;95463.19;;;37.69;38.08
72409;BME280;60402;48.082;11.628;2023-08-24T08:58:28;95461.94;;;37.41;38.36
72409;BME280;60402;48.082;11.628;2023-08-24T09:01:14;95456.84;;;35.84;41.98
72409;BME280;60402;48.082;11.628;2023-08-24T09:04:00;95466.88;;;35.15;43.48
72409;BME280;60402;48.082;11.628;2023-08-24T09:06:46;95464.97;;;34.56;45.65
72409;BME280;60402;48.082;11.628;2023-08-24T09:09:32;95454.41;;;34.26;45.82
72409;BME280;60402;48.082;11.628;2023-08-24T09:12:18;95454.03;;;33.87;47.35
72409;BME280;60402;48.082;11.628;2023-08-24T09:15:07;95453.53;;;33.39;49.07
72409;BME280;60402;48.082;11.628;2023-08-24T09:17:54;95443.16;;;32.63;50.53
72409;BME280;60402;48.082;11.628;2023-08-24T09:20:41;95453.84;;;33.50;47.98
72409;BME280;60402;48.082;11.628;2023-08-24T09:23:27;95451.09;;;32.70;50.12
72409;BME280;60402;48.082;11.628;2023-08-24T09:26:12;95428.75;;;32.17;51.78
72409;BME280;60402;48.082;11.628;2023-08-24T09:28:59;95427.50;;;32.43;51.05
72409;BME280;60402;48.082;11.628;2023-08-24T09:31:45;95413.41;;;32.49;51.29
72409;BME280;60402;48.082;11.628;2023-08-24T09:34:31;95407.78;;;32.03;52.04
72409;BME280;60402;48.082;11.628;2023-08-24T09:37:17;95404.34;;;32.37;52.90
72409;BME280;60402;48.082;11.628;2023-08-24T09:40:04;95382.63;;;32.08;53.18
72409;BME280;60402;48.082;11.628;2023-08-24T09:42:52;95385.06;;;31.78;54.21
72409;BME280;60402;48.082;11.628;2023-08-24T09:45:47;95382.72;;;32.25;53.88
72409;BME280;60402;48.082;11.628;2023-08-24T09:48:32;95372.94;;;31.97;53.82
72409;BME280;60402;48.082;11.628;2023-08-24T09:51:18;95374.16;;;31.79;54.44
72409;BME280;60402;48.082;11.628;2023-08-24T09:54:08;95367.47;;;32.34;52.75
72409;BME280;60402;48.082;11.628;2023-08-24T09:56:55;95365.22;;;32.17;52.18
72409;BME280;60402;48.082;11.628;2023-08-24T09:59:43;95379.75;;;31.21;54.31
72409;BME280;60402;48.082;11.628;2023-08-24T10:02:33;95381.66;;;31.49;53.77
72409;BME280;60402;48.082;11.628;2023-08-24T10:05:23;95371.84;;;31.77;52.78
72409;BME280;60402;48.082;11.628;2023-08-24T10:08:10;95361.69;;;31.00;55.26
72409;BME280;60402;48.082;11.628;2023-08-24T10:10:56;95363.94;;;31.47;54.62
72409;BME280;60402;48.082;11.628;2023-08-24T10:14:04;95356.09;;;31.65;53.79
72409;BME280;60402;48.082;11.628;2023-08-24T10:16:54;95347.31;;;31.73;53.89
72409;BME280;60402;48.082;11.628;2023-08-24T10:19:42;95346.59;;;31.57;53.52
72409;BME280;60402;48.082;11.628;2023-08-24T10:22:29;95340.69;;;31.72;51.27
72409;BME280;60402;48.082;11.628;2023-08-24T10:25:16;95350.00;;;31.78;53.78
72409;BME280;60402;48.082;11.628;2023-08-24T10:28:04;95341.56;;;32.38;50.34
72409;BME280;60402;48.082;11.628;2023-08-24T10:30:51;95332.44;;;32.26;49.36
72409;BME280;60402;48.082;11.628;2023-08-24T10:33:37;95331.50;;;31.76;48.80
72409;BME280;60402;48.082;11.628;2023-08-24T10:36:23;95332.06;;;31.26;49.42
72409;BME280;60402;48.082;11.628;2023-08-24T10:39:09;95313.88;;;31.59;49.85
72409;BME280;60402;48.082;11.628;2023-08-24T10:42:00;95320.19;;;31.80;50.16
72409;BME280;60402;48.082;11.628;2023-08-24T10:44:47;95313.56;;;31.79;47.20
72409;BME280;60402;48.082;11.628;2023-08-24T10:47:43;95317.63;;;32.24;47.04
72409;BME280;60402;48.082;11.628;2023-08-24T10:50:31;95299.41;;;32.09;47.66
72409;BME280;60402;48.082;11.628;2023-08-24T10:53:40;95309.28;;;31.88;49.10
72409;BME280;60402;48.082;11.628;2023-08-24T10:59:20;95291.84;;;31.65;51.07
72409;BME280;60402;48.082;11.628;2023-08-24T11:02:17;95286.94;;;32.08;50.97
72409;BME280;60402;48.082;11.628;2023-08-24T11:05:15;95273.16;;;32.01;50.16
72409;BME280;60402;48.082;11.628;2023-08-24T11:08:03;95270.28;;;31.93;49.35
72409;BME280;60402;48.082;11.628;2023-08-24T11:10:49;95270.13;;;31.91;49.46
72409;BME280;60402;48.082;11.628;2023-08-24T11:13:35;95269.25;;;32.06;48.69
72409;BME280;60402;48.082;11.628;2023-08-24T11:16:40;95260.63;;;31.83;48.99
72409;BME280;60402;48.082;11.628;2023-08-24T11:19:26;95261.81;;;31.72;44.00
72409;BME280;60402;48.082;11.628;2023-08-24T11:22:12;95259.13;;;31.99;44.76
72409;BME280;60402;48.082;11.628;2023-08-24T11:24:58;95249.94;;;31.70;48.28
72409;BME280;60402;48.082;11.628;2023-08-24T11:27:45;95246.34;;;31.95;48.57
72409;BME280;60402;48.082;11.628;2023-08-24T11:30:32;95250.72;;;31.71;49.66
72409;BME280;60402;48.082;11.628;2023-08-24T11:33:33;95251.38;;;31.94;45.11
72409;BME280;60402;48.082;11.628;2023-08-24T11:36:19;95241.44;;;31.97;45.43
72409;BME280;60402;48.082;11.628;2023-08-24T11:39:05;95233.50;;;31.90;47.47
72409;BME280;60402;48.082;11.628;2023-08-24T11:44:50;95234.94;;;32.06;46.61
72409;BME280;60402;48.082;11.628;2023-08-24T11:47:35;95234.53;;;32.10;47.09
72409;BME280;60402;48.082;11.628;2023-08-24T11:50:22;95227.19;;;32.26;46.91
72409;BME280;60402;48.082;11.628;2023-08-24T11:53:08;95228.84;;;32.12;45.80
72409;BME280;60402;48.082;11.628;2023-08-24T11:55:54;95236.91;;;32.29;45.66
72409;BME280;60402;48.082;11.628;2023-08-24T11:58:40;95220.25;;;31.89;46.15
72409;BME280;60402;48.082;11.628;2023-08-24T12:01:26;95220.44;;;32.16;45.84
72409;BME280;60402;48.082;11.628;2023-08-24T12:04:12;95216.63;;;32.56;45.70
72409;BME280;60402;48.082;11.628;2023-08-24T12:06:58;95213.94;;;32.00;47.71
72409;BME280;60402;48.082;11.628;2023-08-24T12:09:46;95207.91;;;32.48;46.32
72409;BME280;60402;48.082;11.628;2023-08-24T12:12:32;95212.13;;;32.55;46.45
72409;BME280;60402;48.082;11.628;2023-08-24T12:15:18;95206.91;;;32.28;44.63
72409;BME280;60402;48.082;11.628;2023-08-24T12:18:12;95205.94;;;32.51;42.90
72409;BME280;60402;48.082;11.628;2023-08-24T12:21:00;95200.63;;;32.57;39.72
72409;BME280;60402;48.082;11.628;2023-08-24T12:26:43;95203.25;;;32.45;38.80
72409;BME280;60402;48.082;11.628;2023-08-24T12:29:28;95193.53;;;32.43;38.97
72409;BME280;60402;48.082;11.628;2023-08-24T12:32:14;95187.25;;;32.46;38.28
72409;BME280;60402;48.082;11.628;2023-08-24T12:35:06;95189.19;;;32.69;39.41
72409;BME280;60402;48.082;11.628;2023-08-24T12:37:51;95178.94;;;32.60;39.13
72409;BME280;60402;48.082;11.628;2023-08-24T12:40:37;95183.88;;;32.92;39.12
72409;BME280;60402;48.082;11.628;2023-08-24T12:43:23;95179.75;;;32.95;37.92
72409;BME280;60402;48.082;11.628;2023-08-24T12:46:08;95175.25;;;32.77;38.79
72409;BME280;60402;48.082;11.628;2023-08-24T12:48:55;95182.13;;;32.89;36.16
72409;BME280;60402;48.082;11.628;2023-08-24T12:51:40;95176.56;;;33.01;37.72
72409;BME280;60402;48.082;11.628;2023-08-24T12:54:26;95174.94;;;32.90;35.77
72409;BME280;60402;48.082;11.628;2023-08-24T12:57:12;95178.38;;;32.96;36.46
72409;BME280;60402;48.082;11.628;2023-08-24T12:59:58;95178.16;;;32.77;39.81
72409;BME280;60402;48.082;11.628;2023-08-24T13:02:43;95155.19;;;32.73;40.06
72409;BME280;60402;48.082;11.628;2023-08-24T13:05:29;95163.31;;;33.00;39.34
72409;BME280;60402;48.082;11.628;2023-08-24T13:08:15;95161.13;;;32.83;38.14
72409;BME280;60402;48.082;11.628;2023-08-24T13:11:00;95157.53;;;32.92;39.76
72409;BME280;60402;48.082;11.628;2023-08-24T13:13:46;95147.44;;;33.03;40.53
72409;BME280;60402;48.082;11.628;2023-08-24T13:16:32;95156.28;;;33.30;40.01
72409;BME280;60402;48.082;11.628;2023-08-24T13:19:17;95152.53;;;32.85;41.05
72409;BME280;60402;48.082;11.628;2023-08-24T13:22:03;95137.13;;;32.67;41.66
72409;BME280;60402;48.082;11.628;2023-08-24T13:24:49;95140.66;;;33.00;42.48
72409;BME280;60402;48.082;11.628;2023-08-24T13:27:35;95118.81;;;33.28;42.12
72409;BME280;60402;48.082;11.628;2023-08-24T13:30:20;95120.44;;;32.77;41.44
72409;BME280;60402;48.082;11.628;2023-08-24T13:33:06;95106.03;;;33.06;41.21
72409;BME280;60402;48.082;11.628;2023-08-24T13:35:52;95106.53;;;33.40;40.41
72409;BME280;60402;48.082;11.628;2023-08-24T13:38:38;95109.34;;;33.20;37.70
72409;BME280;60402;48.082;11.628;2023-08-24T13:41:23;95100.13;;;32.97;42.32
72409;BME280;60402;48.082;11.628;2023-08-24T13:44:09;95091.06;;;33.02;42.60
72409;BME280;60402;48.082;11.628;2023-08-24T13:46:54;95092.38;;;33.36;41.90
72409;BME280;60402;48.082;11.628;2023-08-24T13:49:40;95092.84;;;33.15;40.98
72409;BME280;60402;48.082;11.628;2023-08-24T13:52:26;95075.72;;;33.39;41.51
72409;BME280;60402;48.082;11.628;2023-08-24T13:55:12;95076.09;;;33.25;41.59
72409;BME280;60402;48.082;11.628;2023-08-24T13:57:57;95081.84;;;33.06;43.75
72409;BME280;60402;48.082;11.628;2023-08-24T14:00:43;95070.44;;;33.27;42.45
72409;BME280;60402;48.082;11.628;2023-08-24T14:03:30;95074.56;;;33.51;42.98
72409;BME280;60402;48.082;11.628;2023-08-24T14:06:16;95073.47;;;33.20;42.46
72409;BME280;60402;48.082;11.628;2023-08-24T14:09:03;95071.69;;;33.07;43.40
72409;BME280;60402;48.082;11.628;2023-08-24T14:11:49;95065.66;;;33.05;42.71
72409;BME280;60402;48.082;11.628;2023-08-24T14:14:35;95071.16;;;33.18;43.85
72409;BME280;60402;48.082;11.628;2023-08-24T14:17:20;95058.47;;;33.16;44.12
72409;BME280;60402;48.082;11.628;2023-08-24T14:20:06;95065.13;;;33.43;43.98
72409;BME280;60402;48.082;11.628;2023-08-24T14:22:54;95066.13;;;33.28;42.57
72409;BME280;60402;48.082;11.628;2023-08-24T14:25:40;95064.06;;;32.94;43.92
72409;BME280;60402;48.082;11.628;2023-08-24T14:31:39;95057.31;;;33.01;42.88
72409;BME280;60402;48.082;11.628;2023-08-24T14:34:25;95052.34;;;32.94;44.24
72409;BME280;60402;48.082;11.628;2023-08-24T14:37:10;95052.84;;;32.83;43.99
72409;BME280;60402;48.082;11.628;2023-08-24T14:39:56;95050.28;;;32.87;43.24